sensor_id;sensor_type;location;lat;lon;timestamp;temperature;humidity
21037;DHT22;10677;50.942;4.028;2023-01-28T00:01:10;5.50;99.90
21037;DHT22;10677;50.942;4.028;2023-01-28T00:03:36;5.40;99.90
21037;DHT22;10677;50.942;4.028;2023-01-28T00:06:09;5.50;99.90
21037;DHT22;10677;50.942;4.028;2023-01-28T00:08:35;5.60;99.90
21037;DHT22;10677;50.942;4.028;2023-01-28T00:11:02;5.50;99.90
21037;DHT22;10677;50.942;4.028;2023-01-28T00:13:29;5.50;99.90
21037;DHT22;10677;50.942;4.028;2023-01-28T00:15:56;5.40;99.90
21037;DHT22;10677;50.942;4.028;2023-01-28T00:18:22;5.40;99.90
21037;DHT22;10677;50.942;4.028;2023-01-28T00:21:16;5.30;99.90
21037;DHT22;10677;50.942;4.028;2023-01-28T00:23:42;5.50;99.90
21037;DHT22;10677;50.942;4.028;2023-01-28T00:26:13;5.40;99.90
21037;DHT22;10677;50.942;4.028;2023-01-28T00:28:40;5.20;99.90
21037;DHT22;10677;50.942;4.028;2023-01-28T00:31:15;5.20;99.90
21037;DHT22;10677;50.942;4.028;2023-01-28T00:33:42;5.20;99.90
21037;DHT22;10677;50.942;4.028;2023-01-28T00:36:08;5.10;99.90
21037;DHT22;10677;50.942;4.028;2023-01-28T00:38:34;5.10;99.90
21037;DHT22;10677;50.942;4.028;2023-01-28T00:41:11;5.10;99.90
21037;DHT22;10677;50.942;4.028;2023-01-28T00:43:37;5.20;99.90
21037;DHT22;10677;50.942;4.028;2023-01-28T00:46:04;5.30;99.90
21037;DHT22;10677;50.942;4.028;2023-01-28T00:48:32;5.30;99.90
21037;DHT22;10677;50.942;4.028;2023-01-28T00:50:57;5.10;99.90
21037;DHT22;10677;50.942;4.028;2023-01-28T00:53:23;5.00;99.90
21037;DHT22;10677;50.942;4.028;2023-01-28T00:55:49;5.00;99.90
21037;DHT22;10677;50.942;4.028;2023-01-28T00:58:14;5.00;99.90
21037;DHT22;10677;50.942;4.028;2023-01-28T01:00:40;5.20;99.90
21037;DHT22;10677;50.942;4.028;2023-01-28T01:03:06;5.00;99.90
21037;DHT22;10677;50.942;4.028;2023-01-28T01:05:31;5.00;99.90
21037;DHT22;10677;50.942;4.028;2023-01-28T01:07:58;4.90;99.90
21037;DHT22;10677;50.942;4.028;2023-01-28T01:10:24;4.80;99.90
21037;DHT22;10677;50.942;4.028;2023-01-28T01:12:50;4.80;99.90
21037;DHT22;10677;50.942;4.028;2023-01-28T01:15:17;4.90;99.90
21037;DHT22;10677;50.942;4.028;2023-01-28T01:17:45;5.00;99.90
21037;DHT22;10677;50.942;4.028;2023-01-28T01:20:24;5.10;99.90
21037;DHT22;10677;50.942;4.028;2023-01-28T01:22:50;5.20;99.90
21037;DHT22;10677;50.942;4.028;2023-01-28T01:25:17;5.30;99.90
21037;DHT22;10677;50.942;4.028;2023-01-28T01:27:43;5.40;99.90
21037;DHT22;10677;50.942;4.028;2023-01-28T01:30:11;5.40;99.90
21037;DHT22;10677;50.942;4.028;2023-01-28T01:32:37;5.60;99.90
21037;DHT22;10677;50.942;4.028;2023-01-28T01:35:04;5.50;99.90
21037;DHT22;10677;50.942;4.028;2023-01-28T01:37:36;5.30;99.90
21037;DHT22;10677;50.942;4.028;2023-01-28T01:40:02;5.50;99.90
21037;DHT22;10677;50.942;4.028;2023-01-28T01:42:30;5.60;99.90
21037;DHT22;10677;50.942;4.028;2023-01-28T01:50:51;5.40;99.90
21037;DHT22;10677;50.942;4.028;2023-01-28T01:53:19;5.50;99.90
21037;DHT22;10677;50.942;4.028;2023-01-28T01:55:49;5.50;99.90
21037;DHT22;10677;50.942;4.028;2023-01-28T01:58:18;5.60;99.90
21037;DHT22;10677;50.942;4.028;2023-01-28T02:00:45;5.70;99.90
21037;DHT22;10677;50.942;4.028;2023-01-28T02:03:11;5.50;99.90
21037;DHT22;10677;50.942;4.028;2023-01-28T02:05:38;5.60;99.90
21037;DHT22;10677;50.942;4.028;2023-01-28T02:08:04;5.60;99.90
21037;DHT22;10677;50.942;4.028;2023-01-28T02:10:48;5.60;99.90
21037;DHT22;10677;50.942;4.028;2023-01-28T02:13:15;5.60;99.90
21037;DHT22;10677;50.942;4.028;2023-01-28T02:15:44;5.70;99.90
21037;DHT22;10677;50.942;4.028;2023-01-28T02:18:10;5.60;99.90
21037;DHT22;10677;50.942;4.028;2023-01-28T02:31:36;5.10;99.90
21037;DHT22;10677;50.942;4.028;2023-01-28T02:37:16;5.00;99.90
21037;DHT22;10677;50.942;4.028;2023-01-28T02:39:48;4.80;99.90
21037;DHT22;10677;50.942;4.028;2023-01-28T02:42:22;4.60;99.90
21037;DHT22;10677;50.942;4.028;2023-01-28T02:44:48;4.50;99.90
21037;DHT22;10677;50.942;4.028;2023-01-28T02:47:15;4.50;99.90
21037;DHT22;10677;50.942;4.028;2023-01-28T02:50:08;4.50;99.90
21037;DHT22;10677;50.942;4.028;2023-01-28T02:58:35;4.30;99.90
21037;DHT22;10677;50.942;4.028;2023-01-28T03:04:00;4.20;99.90
21037;DHT22;10677;50.942;4.028;2023-01-28T03:06:36;4.20;99.90
21037;DHT22;10677;50.942;4.028;2023-01-28T03:09:05;4.20;99.90
21037;DHT22;10677;50.942;4.028;2023-01-28T03:14:48;4.30;99.90
21037;DHT22;10677;50.942;4.028;2023-01-28T03:17:47;4.20;99.90
21037;DHT22;10677;50.942;4.028;2023-01-28T03:21:12;4.30;99.90
21037;DHT22;10677;50.942;4.028;2023-01-28T03:24:50;4.50;99.90
21037;DHT22;10677;50.942;4.028;2023-01-28T03:27:23;4.60;99.90
21037;DHT22;10677;50.942;4.028;2023-01-28T03:30:16;4.40;99.90
21037;DHT22;10677;50.942;4.028;2023-01-28T03:33:02;4.20;99.90
21037;DHT22;10677;50.942;4.028;2023-01-28T03:35:48;4.20;99.90
21037;DHT22;10677;50.942;4.028;2023-01-28T03:38:33;4.20;99.90
21037;DHT22;10677;50.942;4.028;2023-01-28T03:41:10;4.30;99.90
21037;DHT22;10677;50.942;4.028;2023-01-28T03:43:36;4.20;99.90
21037;DHT22;10677;50.942;4.028;2023-01-28T03:46:02;4.20;99.90
21037;DHT22;10677;50.942;4.028;2023-01-28T03:48:30;4.20;99.90
21037;DHT22;10677;50.942;4.028;2023-01-28T03:50:56;4.30;99.90
21037;DHT22;10677;50.942;4.028;2023-01-28T03:53:24;4.30;99.90
21037;DHT22;10677;50.942;4.028;2023-01-28T03:55:51;4.40;99.90
21037;DHT22;10677;50.942;4.028;2023-01-28T03:58:18;4.40;99.90
21037;DHT22;10677;50.942;4.028;2023-01-28T04:00:43;4.40;99.90
21037;DHT22;10677;50.942;4.028;2023-01-28T04:03:15;4.30;99.90
21037;DHT22;10677;50.942;4.028;2023-01-28T04:05:46;4.20;99.90
21037;DHT22;10677;50.942;4.028;2023-01-28T04:08:12;4.10;99.90
21037;DHT22;10677;50.942;4.028;2023-01-28T04:10:39;4.10;99.90
21037;DHT22;10677;50.942;4.028;2023-01-28T04:13:05;4.10;99.90
21037;DHT22;10677;50.942;4.028;2023-01-28T04:15:31;4.00;99.90
21037;DHT22;10677;50.942;4.028;2023-01-28T04:17:57;4.00;99.90
21037;DHT22;10677;50.942;4.028;2023-01-28T04:20:25;4.00;99.90
21037;DHT22;10677;50.942;4.028;2023-01-28T04:22:51;4.00;99.90
21037;DHT22;10677;50.942;4.028;2023-01-28T04:25:16;4.00;99.90
21037;DHT22;10677;50.942;4.028;2023-01-28T04:27:42;4.10;99.90
21037;DHT22;10677;50.942;4.028;2023-01-28T04:30:08;4.00;99.90
21037;DHT22;10677;50.942;4.028;2023-01-28T04:32:34;4.00;99.90
21037;DHT22;10677;50.942;4.028;2023-01-28T04:34:59;4.10;99.90
21037;DHT22;10677;50.942;4.028;2023-01-28T04:37:25;4.10;99.90
21037;DHT22;10677;50.942;4.028;2023-01-28T04:39:50;4.10;99.90
21037;DHT22;10677;50.942;4.028;2023-01-28T04:42:16;4.00;99.90
21037;DHT22;10677;50.942;4.028;2023-01-28T04:44:42;4.00;99.90
21037;DHT22;10677;50.942;4.028;2023-01-28T04:47:07;4.00;99.90
21037;DHT22;10677;50.942;4.028;2023-01-28T04:49:33;4.00;99.90
21037;DHT22;10677;50.942;4.028;2023-01-28T04:51:58;4.00;99.90
21037;DHT22;10677;50.942;4.028;2023-01-28T04:54:24;4.00;99.90
21037;DHT22;10677;50.942;4.028;2023-01-28T04:56:50;4.00;99.90
21037;DHT22;10677;50.942;4.028;2023-01-28T04:59:15;4.00;99.90
21037;DHT22;10677;50.942;4.028;2023-01-28T05:01:41;3.90;99.90
21037;DHT22;10677;50.942;4.028;2023-01-28T05:04:07;4.00;99.90
21037;DHT22;10677;50.942;4.028;2023-01-28T05:06:34;3.90;99.90
21037;DHT22;10677;50.942;4.028;2023-01-28T05:08:59;4.00;99.90
21037;DHT22;10677;50.942;4.028;2023-01-28T05:11:25;4.00;99.90
21037;DHT22;10677;50.942;4.028;2023-01-28T05:13:51;4.00;99.90
21037;DHT22;10677;50.942;4.028;2023-01-28T05:16:18;4.10;99.90
21037;DHT22;10677;50.942;4.028;2023-01-28T05:18:44;4.20;99.90
21037;DHT22;10677;50.942;4.028;2023-01-28T05:21:12;4.10;99.90
21037;DHT22;10677;50.942;4.028;2023-01-28T05:23:38;4.10;99.90
21037;DHT22;10677;50.942;4.028;2023-01-28T05:26:04;4.20;99.90
21037;DHT22;10677;50.942;4.028;2023-01-28T05:28:29;4.10;99.90
21037;DHT22;10677;50.942;4.028;2023-01-28T05:30:55;4.10;99.90
21037;DHT22;10677;50.942;4.028;2023-01-28T05:33:20;4.00;99.90
21037;DHT22;10677;50.942;4.028;2023-01-28T05:35:46;4.10;99.90
21037;DHT22;10677;50.942;4.028;2023-01-28T05:38:14;4.00;99.90
21037;DHT22;10677;50.942;4.028;2023-01-28T05:40:39;4.00;99.90
21037;DHT22;10677;50.942;4.028;2023-01-28T05:43:05;4.20;99.90
21037;DHT22;10677;50.942;4.028;2023-01-28T05:45:30;4.30;99.90
21037;DHT22;10677;50.942;4.028;2023-01-28T05:47:56;4.20;99.90
21037;DHT22;10677;50.942;4.028;2023-01-28T05:50:22;4.00;99.90
21037;DHT22;10677;50.942;4.028;2023-01-28T05:52:48;4.10;99.90
21037;DHT22;10677;50.942;4.028;2023-01-28T05:55:13;4.10;99.90
21037;DHT22;10677;50.942;4.028;2023-01-28T05:57:39;4.10;99.90
21037;DHT22;10677;50.942;4.028;2023-01-28T06:00:05;4.10;99.90
21037;DHT22;10677;50.942;4.028;2023-01-28T06:02:31;4.00;99.90
21037;DHT22;10677;50.942;4.028;2023-01-28T06:04:57;3.90;99.90
21037;DHT22;10677;50.942;4.028;2023-01-28T06:07:22;3.90;99.90
21037;DHT22;10677;50.942;4.028;2023-01-28T06:09:48;4.00;99.90
21037;DHT22;10677;50.942;4.028;2023-01-28T06:12:14;4.00;99.90
21037;DHT22;10677;50.942;4.028;2023-01-28T06:14:40;3.90;99.90
21037;DHT22;10677;50.942;4.028;2023-01-28T06:17:06;3.80;99.90
21037;DHT22;10677;50.942;4.028;2023-01-28T06:19:32;3.80;99.90
21037;DHT22;10677;50.942;4.028;2023-01-28T06:21:57;3.80;99.90
21037;DHT22;10677;50.942;4.028;2023-01-28T06:24:23;3.80;99.90
21037;DHT22;10677;50.942;4.028;2023-01-28T06:26:48;3.90;99.90
21037;DHT22;10677;50.942;4.028;2023-01-28T06:29:14;3.90;99.90
21037;DHT22;10677;50.942;4.028;2023-01-28T06:31:40;3.90;99.90
21037;DHT22;10677;50.942;4.028;2023-01-28T06:34:05;4.00;99.90
21037;DHT22;10677;50.942;4.028;2023-01-28T06:36:31;4.00;99.90
21037;DHT22;10677;50.942;4.028;2023-01-28T06:38:57;4.00;99.90
21037;DHT22;10677;50.942;4.028;2023-01-28T06:41:23;3.90;99.90
21037;DHT22;10677;50.942;4.028;2023-01-28T06:43:49;4.10;99.90
21037;DHT22;10677;50.942;4.028;2023-01-28T06:46:15;4.10;99.90
21037;DHT22;10677;50.942;4.028;2023-01-28T06:48:41;4.10;99.90
21037;DHT22;10677;50.942;4.028;2023-01-28T06:51:06;4.20;99.90
21037;DHT22;10677;50.942;4.028;2023-01-28T06:53:32;4.40;99.90
21037;DHT22;10677;50.942;4.028;2023-01-28T06:55:57;4.40;99.90
21037;DHT22;10677;50.942;4.028;2023-01-28T06:58:23;4.30;99.90
21037;DHT22;10677;50.942;4.028;2023-01-28T07:00:49;4.30;99.90
21037;DHT22;10677;50.942;4.028;2023-01-28T07:03:15;4.30;99.90
21037;DHT22;10677;50.942;4.028;2023-01-28T07:05:40;4.20;99.90
21037;DHT22;10677;50.942;4.028;2023-01-28T07:08:06;4.00;99.90
21037;DHT22;10677;50.942;4.028;2023-01-28T07:10:32;3.90;99.90
21037;DHT22;10677;50.942;4.028;2023-01-28T07:12:57;3.80;99.90
21037;DHT22;10677;50.942;4.028;2023-01-28T07:15:23;3.80;99.90
21037;DHT22;10677;50.942;4.028;2023-01-28T07:17:49;3.90;99.90
21037;DHT22;10677;50.942;4.028;2023-01-28T07:20:15;4.00;99.90
21037;DHT22;10677;50.942;4.028;2023-01-28T07:22:42;4.30;99.90
21037;DHT22;10677;50.942;4.028;2023-01-28T07:25:09;4.30;99.90
21037;DHT22;10677;50.942;4.028;2023-01-28T07:27:35;4.10;99.90
21037;DHT22;10677;50.942;4.028;2023-01-28T07:30:01;3.90;99.90
21037;DHT22;10677;50.942;4.028;2023-01-28T07:32:27;3.90;99.90
21037;DHT22;10677;50.942;4.028;2023-01-28T07:34:53;3.90;99.90
21037;DHT22;10677;50.942;4.028;2023-01-28T07:37:19;4.00;99.90
21037;DHT22;10677;50.942;4.028;2023-01-28T07:39:45;4.20;99.90
21037;DHT22;10677;50.942;4.028;2023-01-28T07:42:11;4.10;99.90
21037;DHT22;10677;50.942;4.028;2023-01-28T07:44:37;3.90;99.90
21037;DHT22;10677;50.942;4.028;2023-01-28T07:47:03;3.90;99.90
21037;DHT22;10677;50.942;4.028;2023-01-28T07:49:29;3.90;99.90
21037;DHT22;10677;50.942;4.028;2023-01-28T07:51:55;3.80;99.90
21037;DHT22;10677;50.942;4.028;2023-01-28T07:54:21;3.70;99.90
21037;DHT22;10677;50.942;4.028;2023-01-28T07:56:46;3.70;99.90
21037;DHT22;10677;50.942;4.028;2023-01-28T07:59:12;3.70;99.90
21037;DHT22;10677;50.942;4.028;2023-01-28T08:01:38;3.70;99.90
21037;DHT22;10677;50.942;4.028;2023-01-28T08:04:03;3.70;99.90
21037;DHT22;10677;50.942;4.028;2023-01-28T08:06:29;3.70;99.90
21037;DHT22;10677;50.942;4.028;2023-01-28T08:08:55;3.70;99.90
21037;DHT22;10677;50.942;4.028;2023-01-28T08:11:21;3.70;99.90
21037;DHT22;10677;50.942;4.028;2023-01-28T08:13:48;3.70;99.90
21037;DHT22;10677;50.942;4.028;2023-01-28T08:16:14;3.70;99.90
21037;DHT22;10677;50.942;4.028;2023-01-28T08:18:40;3.60;99.90
21037;DHT22;10677;50.942;4.028;2023-01-28T08:21:06;3.50;99.90
21037;DHT22;10677;50.942;4.028;2023-01-28T08:23:31;3.50;99.90
21037;DHT22;10677;50.942;4.028;2023-01-28T08:25:59;3.50;99.90
21037;DHT22;10677;50.942;4.028;2023-01-28T08:28:25;3.50;99.90
21037;DHT22;10677;50.942;4.028;2023-01-28T08:30:51;3.50;99.90
21037;DHT22;10677;50.942;4.028;2023-01-28T08:33:18;3.60;99.90
21037;DHT22;10677;50.942;4.028;2023-01-28T08:35:44;3.60;99.90
21037;DHT22;10677;50.942;4.028;2023-01-28T08:38:11;3.60;99.90
21037;DHT22;10677;50.942;4.028;2023-01-28T08:40:39;3.60;99.90
21037;DHT22;10677;50.942;4.028;2023-01-28T08:43:04;3.50;99.90
21037;DHT22;10677;50.942;4.028;2023-01-28T08:45:30;3.50;99.90
21037;DHT22;10677;50.942;4.028;2023-01-28T08:47:58;3.60;99.90
21037;DHT22;10677;50.942;4.028;2023-01-28T08:50:26;3.60;99.90
21037;DHT22;10677;50.942;4.028;2023-01-28T08:52:56;3.50;99.90
21037;DHT22;10677;50.942;4.028;2023-01-28T08:55:22;3.50;99.90
21037;DHT22;10677;50.942;4.028;2023-01-28T08:57:48;3.60;99.90
21037;DHT22;10677;50.942;4.028;2023-01-28T09:00:14;3.50;99.90
21037;DHT22;10677;50.942;4.028;2023-01-28T09:02:40;3.50;99.90
21037;DHT22;10677;50.942;4.028;2023-01-28T09:05:06;3.60;99.90
21037;DHT22;10677;50.942;4.028;2023-01-28T09:07:34;3.80;99.90
21037;DHT22;10677;50.942;4.028;2023-01-28T09:09:59;3.80;99.90
21037;DHT22;10677;50.942;4.028;2023-01-28T09:12:25;3.80;99.90
21037;DHT22;10677;50.942;4.028;2023-01-28T09:14:51;3.80;99.90
21037;DHT22;10677;50.942;4.028;2023-01-28T09:17:17;3.90;99.90
21037;DHT22;10677;50.942;4.028;2023-01-28T09:19:43;4.00;99.90
21037;DHT22;10677;50.942;4.028;2023-01-28T09:22:09;4.10;99.90
21037;DHT22;10677;50.942;4.028;2023-01-28T09:24:35;4.10;99.90
21037;DHT22;10677;50.942;4.028;2023-01-28T09:27:01;4.50;99.90
21037;DHT22;10677;50.942;4.028;2023-01-28T09:29:26;4.80;99.90
21037;DHT22;10677;50.942;4.028;2023-01-28T09:31:52;4.90;99.90
21037;DHT22;10677;50.942;4.028;2023-01-28T09:34:18;5.10;99.90
21037;DHT22;10677;50.942;4.028;2023-01-28T09:36:43;5.20;99.90
21037;DHT22;10677;50.942;4.028;2023-01-28T09:39:09;5.20;99.90
21037;DHT22;10677;50.942;4.028;2023-01-28T09:47:54;5.30;99.90
21037;DHT22;10677;50.942;4.028;2023-01-28T09:50:33;5.20;99.90
21037;DHT22;10677;50.942;4.028;2023-01-28T09:53:05;5.20;99.90
21037;DHT22;10677;50.942;4.028;2023-01-28T09:55:37;5.20;99.90
21037;DHT22;10677;50.942;4.028;2023-01-28T09:58:11;5.10;99.90
21037;DHT22;10677;50.942;4.028;2023-01-28T10:09:13;5.00;99.90
21037;DHT22;10677;50.942;4.028;2023-01-28T10:14:48;4.80;99.90
21037;DHT22;10677;50.942;4.028;2023-01-28T10:19:52;5.00;99.90
21037;DHT22;10677;50.942;4.028;2023-01-28T10:22:25;5.00;99.90
21037;DHT22;10677;50.942;4.028;2023-01-28T10:24:56;4.90;99.90
21037;DHT22;10677;50.942;4.028;2023-01-28T10:27:29;4.90;99.90
21037;DHT22;10677;50.942;4.028;2023-01-28T10:29:58;5.00;99.90
21037;DHT22;10677;50.942;4.028;2023-01-28T10:32:32;5.00;99.90
21037;DHT22;10677;50.942;4.028;2023-01-28T10:34:58;5.10;99.90
21037;DHT22;10677;50.942;4.028;2023-01-28T10:37:26;5.20;99.90
21037;DHT22;10677;50.942;4.028;2023-01-28T10:39:57;5.40;99.90
21037;DHT22;10677;50.942;4.028;2023-01-28T10:42:34;5.60;99.90
21037;DHT22;10677;50.942;4.028;2023-01-28T10:45:18;5.60;99.90
21037;DHT22;10677;50.942;4.028;2023-01-28T10:47:50;5.60;99.90
21037;DHT22;10677;50.942;4.028;2023-01-28T10:50:21;5.80;99.90
21037;DHT22;10677;50.942;4.028;2023-01-28T10:53:02;5.90;99.90
21037;DHT22;10677;50.942;4.028;2023-01-28T10:55:45;6.00;99.90
21037;DHT22;10677;50.942;4.028;2023-01-28T10:58:18;6.00;99.90
21037;DHT22;10677;50.942;4.028;2023-01-28T11:00:45;5.70;99.90
21037;DHT22;10677;50.942;4.028;2023-01-28T11:03:18;5.90;99.90
21037;DHT22;10677;50.942;4.028;2023-01-28T11:05:50;5.90;99.90
21037;DHT22;10677;50.942;4.028;2023-01-28T11:08:17;6.00;99.90
21037;DHT22;10677;50.942;4.028;2023-01-28T11:10:44;6.20;99.90
21037;DHT22;10677;50.942;4.028;2023-01-28T11:13:39;6.20;99.90
21037;DHT22;10677;50.942;4.028;2023-01-28T11:16:16;6.20;99.90
21037;DHT22;10677;50.942;4.028;2023-01-28T11:18:54;6.20;99.90
21037;DHT22;10677;50.942;4.028;2023-01-28T11:21:27;6.20;99.90
21037;DHT22;10677;50.942;4.028;2023-01-28T11:23:58;6.00;99.90
21037;DHT22;10677;50.942;4.028;2023-01-28T11:26:37;6.00;99.90
21037;DHT22;10677;50.942;4.028;2023-01-28T11:29:05;6.00;99.90
21037;DHT22;10677;50.942;4.028;2023-01-28T11:31:39;6.00;99.90
21037;DHT22;10677;50.942;4.028;2023-01-28T11:34:16;5.80;99.90
21037;DHT22;10677;50.942;4.028;2023-01-28T11:39:28;5.70;99.90
21037;DHT22;10677;50.942;4.028;2023-01-28T11:42:13;5.70;99.90
21037;DHT22;10677;50.942;4.028;2023-01-28T11:44:40;5.30;99.90
21037;DHT22;10677;50.942;4.028;2023-01-28T11:50:17;5.50;99.90
21037;DHT22;10677;50.942;4.028;2023-01-28T12:09:32;6.20;99.90
21037;DHT22;10677;50.942;4.028;2023-01-28T12:40:35;6.30;99.90
21037;DHT22;10677;50.942;4.028;2023-01-28T12:46:02;6.50;99.90
21037;DHT22;10677;50.942;4.028;2023-01-28T12:48:36;6.60;99.90
21037;DHT22;10677;50.942;4.028;2023-01-28T12:51:17;6.70;99.90
21037;DHT22;10677;50.942;4.028;2023-01-28T12:54:01;6.70;99.90
21037;DHT22;10677;50.942;4.028;2023-01-28T12:56:51;6.60;99.90
21037;DHT22;10677;50.942;4.028;2023-01-28T13:07:33;7.00;99.90
21037;DHT22;10677;50.942;4.028;2023-01-28T13:10:04;6.80;99.90
21037;DHT22;10677;50.942;4.028;2023-01-28T13:12:31;6.60;99.90
21037;DHT22;10677;50.942;4.028;2023-01-28T13:14:59;6.50;99.90
21037;DHT22;10677;50.942;4.028;2023-01-28T13:17:30;6.50;99.90
21037;DHT22;10677;50.942;4.028;2023-01-28T13:19:57;6.50;99.90
21037;DHT22;10677;50.942;4.028;2023-01-28T13:22:34;6.70;99.90
21037;DHT22;10677;50.942;4.028;2023-01-28T13:25:22;6.60;99.90
21037;DHT22;10677;50.942;4.028;2023-01-28T13:28:05;6.60;99.90
21037;DHT22;10677;50.942;4.028;2023-01-28T13:30:33;6.50;99.90
21037;DHT22;10677;50.942;4.028;2023-01-28T13:33:06;6.40;99.90
21037;DHT22;10677;50.942;4.028;2023-01-28T13:35:36;6.40;99.90
21037;DHT22;10677;50.942;4.028;2023-01-28T13:38:16;6.20;99.90
21037;DHT22;10677;50.942;4.028;2023-01-28T13:40:51;6.10;99.90
21037;DHT22;10677;50.942;4.028;2023-01-28T13:46:12;6.20;99.90
21037;DHT22;10677;50.942;4.028;2023-01-28T13:48:49;6.00;99.90
21037;DHT22;10677;50.942;4.028;2023-01-28T13:51:36;6.30;99.90
21037;DHT22;10677;50.942;4.028;2023-01-28T14:16:47;6.90;99.90
21037;DHT22;10677;50.942;4.028;2023-01-28T14:19:21;6.80;99.90
21037;DHT22;10677;50.942;4.028;2023-01-28T14:21:51;6.70;99.90
21037;DHT22;10677;50.942;4.028;2023-01-28T14:24:18;6.70;99.90
21037;DHT22;10677;50.942;4.028;2023-01-28T14:32:25;6.90;99.90
21037;DHT22;10677;50.942;4.028;2023-01-28T14:34:53;7.10;99.90
21037;DHT22;10677;50.942;4.028;2023-01-28T14:37:23;7.40;99.90
21037;DHT22;10677;50.942;4.028;2023-01-28T14:39:51;7.60;99.90
21037;DHT22;10677;50.942;4.028;2023-01-28T14:42:39;7.80;99.90
21037;DHT22;10677;50.942;4.028;2023-01-28T14:55:57;8.30;99.90
21037;DHT22;10677;50.942;4.028;2023-01-28T14:58:36;8.60;99.90
21037;DHT22;10677;50.942;4.028;2023-01-28T15:01:02;8.70;99.90
21037;DHT22;10677;50.942;4.028;2023-01-28T15:03:29;8.70;99.90
21037;DHT22;10677;50.942;4.028;2023-01-28T15:06:11;8.70;99.90
21037;DHT22;10677;50.942;4.028;2023-01-28T15:08:37;8.70;99.90
21037;DHT22;10677;50.942;4.028;2023-01-28T15:11:06;9.00;99.90
21037;DHT22;10677;50.942;4.028;2023-01-28T15:13:46;9.10;99.90
21037;DHT22;10677;50.942;4.028;2023-01-28T15:16:31;9.20;99.90
21037;DHT22;10677;50.942;4.028;2023-01-28T15:18:59;9.00;99.90
21037;DHT22;10677;50.942;4.028;2023-01-28T15:21:27;8.70;99.90
21037;DHT22;10677;50.942;4.028;2023-01-28T15:23:58;8.40;99.90
21037;DHT22;10677;50.942;4.028;2023-01-28T15:26:29;8.10;99.90
21037;DHT22;10677;50.942;4.028;2023-01-28T15:28:56;7.80;99.90
21037;DHT22;10677;50.942;4.028;2023-01-28T15:31:31;7.60;99.90
21037;DHT22;10677;50.942;4.028;2023-01-28T15:34:13;7.40;99.90
21037;DHT22;10677;50.942;4.028;2023-01-28T15:36:40;7.10;99.90
21037;DHT22;10677;50.942;4.028;2023-01-28T15:39:18;6.90;99.90
21037;DHT22;10677;50.942;4.028;2023-01-28T15:41:48;6.80;99.90
21037;DHT22;10677;50.942;4.028;2023-01-28T15:44:17;6.80;99.90
21037;DHT22;10677;50.942;4.028;2023-01-28T15:46:44;6.80;99.90
21037;DHT22;10677;50.942;4.028;2023-01-28T15:49:15;6.60;99.90
21037;DHT22;10677;50.942;4.028;2023-01-28T15:57:53;6.40;99.90
21037;DHT22;10677;50.942;4.028;2023-01-28T16:00:20;6.40;99.90
21037;DHT22;10677;50.942;4.028;2023-01-28T16:02:51;6.30;99.90
21037;DHT22;10677;50.942;4.028;2023-01-28T16:05:52;6.30;99.90
21037;DHT22;10677;50.942;4.028;2023-01-28T16:08:33;6.30;99.90
21037;DHT22;10677;50.942;4.028;2023-01-28T16:11:01;6.30;99.90
21037;DHT22;10677;50.942;4.028;2023-01-28T16:13:31;6.30;99.90
21037;DHT22;10677;50.942;4.028;2023-01-28T16:15:58;6.20;99.90
21037;DHT22;10677;50.942;4.028;2023-01-28T16:21:04;6.10;99.90
21037;DHT22;10677;50.942;4.028;2023-01-28T16:23:31;5.90;99.90
21037;DHT22;10677;50.942;4.028;2023-01-28T16:26:05;5.80;99.90
21037;DHT22;10677;50.942;4.028;2023-01-28T16:28:32;5.80;99.90
21037;DHT22;10677;50.942;4.028;2023-01-28T16:30:58;5.80;99.90
21037;DHT22;10677;50.942;4.028;2023-01-28T16:33:25;5.80;99.90
21037;DHT22;10677;50.942;4.028;2023-01-28T16:35:51;5.90;99.90
21037;DHT22;10677;50.942;4.028;2023-01-28T16:38:17;5.90;99.90
21037;DHT22;10677;50.942;4.028;2023-01-28T16:40:44;5.90;99.90
21037;DHT22;10677;50.942;4.028;2023-01-28T16:43:12;6.00;99.90
21037;DHT22;10677;50.942;4.028;2023-01-28T16:45:38;6.00;99.90
21037;DHT22;10677;50.942;4.028;2023-01-28T16:48:05;6.00;99.90
21037;DHT22;10677;50.942;4.028;2023-01-28T16:50:32;6.00;99.90
21037;DHT22;10677;50.942;4.028;2023-01-28T16:52:58;5.90;99.90
21037;DHT22;10677;50.942;4.028;2023-01-28T16:55:24;5.90;99.90
21037;DHT22;10677;50.942;4.028;2023-01-28T16:57:53;5.90;99.90
21037;DHT22;10677;50.942;4.028;2023-01-28T17:00:24;5.90;99.90
21037;DHT22;10677;50.942;4.028;2023-01-28T17:02:52;5.80;99.90
21037;DHT22;10677;50.942;4.028;2023-01-28T17:05:18;5.90;99.90
21037;DHT22;10677;50.942;4.028;2023-01-28T17:07:46;5.90;99.90
21037;DHT22;10677;50.942;4.028;2023-01-28T17:10:14;5.90;99.90
21037;DHT22;10677;50.942;4.028;2023-01-28T17:12:41;5.90;99.90
21037;DHT22;10677;50.942;4.028;2023-01-28T17:15:07;5.90;99.90
21037;DHT22;10677;50.942;4.028;2023-01-28T17:17:34;5.90;99.90
21037;DHT22;10677;50.942;4.028;2023-01-28T17:20:00;5.90;99.90
21037;DHT22;10677;50.942;4.028;2023-01-28T17:22:26;5.70;99.90
21037;DHT22;10677;50.942;4.028;2023-01-28T17:24:52;5.50;99.90
21037;DHT22;10677;50.942;4.028;2023-01-28T17:27:17;5.60;99.90
21037;DHT22;10677;50.942;4.028;2023-01-28T17:29:43;5.60;99.90
21037;DHT22;10677;50.942;4.028;2023-01-28T17:32:09;5.60;99.90
21037;DHT22;10677;50.942;4.028;2023-01-28T17:34:34;5.60;99.90
21037;DHT22;10677;50.942;4.028;2023-01-28T17:37:00;5.50;99.90
21037;DHT22;10677;50.942;4.028;2023-01-28T17:39:26;5.50;99.90
21037;DHT22;10677;50.942;4.028;2023-01-28T17:41:51;5.40;99.90
21037;DHT22;10677;50.942;4.028;2023-01-28T17:44:18;5.60;99.90
21037;DHT22;10677;50.942;4.028;2023-01-28T17:46:45;5.60;99.90
21037;DHT22;10677;50.942;4.028;2023-01-28T17:49:12;5.30;99.90
21037;DHT22;10677;50.942;4.028;2023-01-28T17:51:38;5.40;99.90
21037;DHT22;10677;50.942;4.028;2023-01-28T17:54:04;5.20;99.90
21037;DHT22;10677;50.942;4.028;2023-01-28T17:56:29;5.20;99.90
21037;DHT22;10677;50.942;4.028;2023-01-28T17:58:57;5.10;99.90
21037;DHT22;10677;50.942;4.028;2023-01-28T18:01:25;4.90;99.90
21037;DHT22;10677;50.942;4.028;2023-01-28T18:03:51;4.90;99.90
21037;DHT22;10677;50.942;4.028;2023-01-28T18:06:17;5.00;99.90
21037;DHT22;10677;50.942;4.028;2023-01-28T18:08:44;5.10;99.90
21037;DHT22;10677;50.942;4.028;2023-01-28T18:11:12;5.00;99.90
21037;DHT22;10677;50.942;4.028;2023-01-28T18:13:39;4.90;99.90
21037;DHT22;10677;50.942;4.028;2023-01-28T18:16:07;4.90;99.90
21037;DHT22;10677;50.942;4.028;2023-01-28T18:18:33;4.90;99.90
21037;DHT22;10677;50.942;4.028;2023-01-28T18:21:00;4.70;99.90
21037;DHT22;10677;50.942;4.028;2023-01-28T18:23:27;4.50;99.90
21037;DHT22;10677;50.942;4.028;2023-01-28T18:25:57;4.50;99.90
21037;DHT22;10677;50.942;4.028;2023-01-28T18:28:23;4.40;99.90
21037;DHT22;10677;50.942;4.028;2023-01-28T18:30:49;4.30;99.90
21037;DHT22;10677;50.942;4.028;2023-01-28T18:33:15;4.30;99.90
21037;DHT22;10677;50.942;4.028;2023-01-28T18:35:42;4.30;99.90
21037;DHT22;10677;50.942;4.028;2023-01-28T18:38:08;4.40;99.90
21037;DHT22;10677;50.942;4.028;2023-01-28T18:40:34;4.30;99.90
21037;DHT22;10677;50.942;4.028;2023-01-28T18:42:59;4.30;99.90